Time;durP1;ratioP1;P1;durP2;ratioP2;P2;SDS_P1;SDS_P2;PMS_P1;PMS_P2;Temp;Humidity;BMP_temperature;BMP_pressure;BME280_temperature;BME280_humidity;BME280_pressure;Samples;Min_cycle;Max_cycle;Signal;HPM_P1;HPM_P2
2024/01/25 00:01:08;;;;;;;21.98;5.53;;;8.90;99.90;;;;;;5095055;28;20373;-84
2024/01/25 00:03:34;;;;;;;26.95;6.65;;;8.90;99.90;;;;;;5060510;28;20529;-84
2024/01/25 00:06:00;;;;;;;26.95;6.05;;;8.80;99.90;;;;;;5059917;28;20027;-84
2024/01/25 00:08:25;;;;;;;20.70;6.22;;;8.80;99.90;;;;;;5076818;28;20032;-84
2024/01/25 00:10:51;;;;;;;25.08;6.03;;;8.70;99.90;;;;;;5076814;28;20044;-84
2024/01/25 00:13:17;;;;;;;20.23;5.47;;;8.70;99.90;;;;;;5043032;28;20115;-84
2024/01/25 00:15:42;;;;;;;21.90;5.45;;;8.70;99.90;;;;;;5059914;28;20100;-85
2024/01/25 00:18:08;;;;;;;22.42;5.90;;;8.60;99.90;;;;;;5094738;28;20464;-84
2024/01/25 00:20:34;;;;;;;17.95;5.70;;;8.60;99.90;;;;;;5059778;28;20515;-84
2024/01/25 00:22:59;;;;;;;26.58;5.93;;;8.50;99.90;;;;;;5076585;28;20032;-84
2024/01/25 00:25:25;;;;;;;24.00;5.30;;;8.50;99.90;;;;;;5059660;28;20111;-84
2024/01/25 00:27:51;;;;;;;21.27;5.45;;;8.50;99.90;;;;;;5059637;28;20081;-84
2024/01/25 00:30:16;;;;;;;22.85;5.68;;;8.40;99.90;;;;;;5094624;28;20078;-84
2024/01/25 00:32:42;;;;;;;22.55;5.60;;;8.40;99.90;;;;;;5076167;28;20447;-84
2024/01/25 00:35:10;;;;;;;19.05;4.47;;;8.30;99.90;;;;;;5076312;28;20036;-84
2024/01/25 00:37:36;;;;;;;30.30;5.35;;;8.30;99.90;;;;;;5060079;28;20066;-85
2024/01/25 00:40:03;;;;;;;22.65;5.82;;;8.30;99.90;;;;;;5059148;28;20032;-85
2024/01/25 00:42:30;;;;;;;20.27;4.93;;;8.20;99.90;;;;;;5075948;28;20028;-85
2024/01/25 00:44:56;;;;;;;21.25;5.75;;;8.20;99.90;;;;;;5043187;28;20028;-84
2024/01/25 00:47:22;;;;;;;17.63;4.38;;;8.20;99.90;;;;;;5076900;28;20115;-85
2024/01/25 00:49:48;;;;;;;19.63;5.10;;;8.10;99.90;;;;;;5060865;28;20173;-84
2024/01/25 00:52:14;;;;;;;16.45;4.50;;;8.10;99.90;;;;;;5069126;28;20020;-85
2024/01/25 00:54:40;;;;;;;24.65;5.03;;;8.00;99.90;;;;;;5117999;28;20063;-85
2024/01/25 00:57:06;;;;;;;21.17;5.13;;;8.00;99.90;;;;;;5100818;28;20008;-84
2024/01/25 00:59:32;;;;;;;24.70;5.10;;;8.00;99.90;;;;;;5082118;28;20039;-84
2024/01/25 01:01:59;;;;;;;19.13;4.65;;;7.90;99.90;;;;;;5081893;28;20028;-84
2024/01/25 01:04:26;;;;;;;18.15;5.13;;;7.80;99.90;;;;;;5076747;28;20020;-84
2024/01/25 01:06:52;;;;;;;15.77;4.38;;;7.80;99.90;;;;;;5059393;28;20028;-84
2024/01/25 01:09:18;;;;;;;16.88;4.60;;;7.80;99.90;;;;;;5075312;28;20059;-84
2024/01/25 01:11:43;;;;;;;22.88;5.40;;;7.70;99.90;;;;;;5059164;28;20028;-84
2024/01/25 01:17:26;;;;;;;23.30;5.38;;;7.70;99.90;;;;;;5082465;28;20028;-84
2024/01/25 01:19:51;;;;;;;19.13;4.45;;;7.70;99.90;;;;;;5075496;28;20028;-85
2024/01/25 01:22:17;;;;;;;19.42;4.22;;;7.70;99.90;;;;;;5058979;28;20097;-84
2024/01/25 01:24:43;;;;;;;20.98;4.05;;;7.70;99.90;;;;;;5058757;28;20028;-85
2024/01/25 01:27:08;;;;;;;18.95;5.32;;;7.60;99.90;;;;;;5093737;28;20461;-84
2024/01/25 01:29:34;;;;;;;19.15;4.28;;;7.60;99.90;;;;;;5093613;28;20444;-84
2024/01/25 01:31:59;;;;;;;21.45;5.15;;;7.60;99.90;;;;;;5041425;28;20039;-85
2024/01/25 01:34:25;;;;;;;20.25;5.50;;;7.60;99.90;;;;;;5074719;28;20042;-85
2024/01/25 01:36:51;;;;;;;17.75;4.60;;;7.50;99.90;;;;;;5075469;28;20031;-84
2024/01/25 01:39:16;;;;;;;19.40;4.78;;;7.50;99.90;;;;;;5075236;28;20020;-84
2024/01/25 01:41:46;;;;;;;18.00;4.75;;;7.50;99.90;;;;;;5058547;28;20039;-84
2024/01/25 01:44:11;;;;;;;17.75;4.68;;;7.40;99.90;;;;;;5075313;28;20020;-85
2024/01/25 01:46:39;;;;;;;21.92;5.00;;;7.40;99.90;;;;;;5093665;28;20024;-85
2024/01/25 01:49:08;;;;;;;19.33;4.93;;;7.40;99.90;;;;;;5075374;28;20021;-85
2024/01/25 01:51:34;;;;;;;24.70;5.45;;;7.40;99.90;;;;;;5075327;28;20028;-84
2024/01/25 01:54:05;;;;;;;17.58;4.75;;;7.30;99.90;;;;;;5060642;28;20040;-85
2024/01/25 01:56:31;;;;;;;18.33;5.10;;;7.30;99.90;;;;;;5079506;28;20052;-84
2024/01/25 01:59:04;;;;;;;21.63;4.63;;;7.20;99.90;;;;;;5062737;28;20047;-84
2024/01/25 02:01:30;;;;;;;20.70;5.28;;;7.20;99.90;;;;;;5078827;28;20494;-84
2024/01/25 02:03:56;;;;;;;20.38;5.25;;;7.20;99.90;;;;;;5078766;28;20043;-85
2024/01/25 02:06:23;;;;;;;23.23;5.78;;;7.10;99.90;;;;;;5078967;28;20024;-84
2024/01/25 02:08:50;;;;;;;19.15;4.38;;;7.20;99.90;;;;;;5097314;28;20024;-84
2024/01/25 02:11:17;;;;;;;20.52;5.13;;;7.10;99.90;;;;;;5079077;28;20377;-84
2024/01/25 02:13:43;;;;;;;19.92;5.20;;;7.10;99.90;;;;;;5079942;28;20028;-84
2024/01/25 02:16:09;;;;;;;18.98;5.25;;;7.10;99.90;;;;;;5065362;28;20165;-84
2024/01/25 02:18:35;;;;;;;22.88;4.85;;;7.10;99.90;;;;;;5092941;28;20058;-84
2024/01/25 02:21:01;;;;;;;25.52;5.40;;;7.10;99.90;;;;;;5120672;28;20430;-84
2024/01/25 02:23:26;;;;;;;21.88;5.90;;;7.10;99.90;;;;;;5103482;28;20128;-85
2024/01/25 02:25:53;;;;;;;24.33;5.97;;;7.00;99.90;;;;;;5085414;28;20032;-85
2024/01/25 02:28:18;;;;;;;23.17;6.22;;;7.00;99.90;;;;;;5081962;28;20024;-85
2024/01/25 02:30:44;;;;;;;20.98;5.53;;;7.00;99.90;;;;;;5063340;28;20472;-85
2024/01/25 02:33:10;;;;;;;22.45;4.85;;;7.00;99.90;;;;;;5079015;28;20032;-84
2024/01/25 02:35:36;;;;;;;15.90;4.57;;;7.00;99.90;;;;;;5078690;28;20024;-85
2024/01/25 02:38:02;;;;;;;20.27;5.75;;;7.00;99.90;;;;;;5078573;28;20040;-85
2024/01/25 02:40:28;;;;;;;17.95;4.75;;;6.90;99.90;;;;;;5078220;28;20085;-85
2024/01/25 02:42:53;;;;;;;22.92;4.85;;;6.90;99.90;;;;;;5078400;28;20043;-85
2024/01/25 02:45:19;;;;;;;19.95;5.07;;;6.90;99.90;;;;;;5078374;28;20123;-84
2024/01/25 02:47:44;;;;;;;19.70;5.07;;;6.90;99.90;;;;;;5045068;28;20063;-85
2024/01/25 02:50:10;;;;;;;17.17;4.57;;;6.90;99.90;;;;;;5044940;28;20024;-85
2024/01/25 02:52:36;;;;;;;18.33;5.50;;;6.90;99.90;;;;;;5078440;28;20032;-85
2024/01/25 02:55:02;;;;;;;17.30;4.68;;;6.90;99.90;;;;;;5061552;28;20169;-84
2024/01/25 02:57:27;;;;;;;19.02;5.28;;;6.80;99.90;;;;;;5096320;28;20365;-85
2024/01/25 02:59:53;;;;;;;16.13;4.65;;;6.80;99.90;;;;;;5095772;28;20032;-85
2024/01/25 03:02:19;;;;;;;22.30;5.72;;;6.80;99.90;;;;;;5044906;28;20140;-84
2024/01/25 03:04:45;;;;;;;20.58;5.65;;;6.70;99.90;;;;;;5060081;28;20035;-84
2024/01/25 03:07:11;;;;;;;17.40;4.53;;;6.70;99.90;;;;;;5077941;28;20464;-85
2024/01/25 03:09:37;;;;;;;18.75;4.32;;;6.70;99.90;;;;;;5061106;28;20055;-85
2024/01/25 03:12:03;;;;;;;22.58;5.00;;;6.70;99.90;;;;;;5061055;28;20394;-84
2024/01/25 03:14:28;;;;;;;19.67;5.55;;;6.70;99.90;;;;;;5060985;28;20035;-84
2024/01/25 03:16:54;;;;;;;16.65;4.30;;;6.60;99.90;;;;;;5061050;28;20024;-84
2024/01/25 03:19:20;;;;;;;23.48;5.10;;;6.60;99.90;;;;;;5044593;28;20077;-84
2024/01/25 03:21:45;;;;;;;19.67;4.40;;;6.60;99.90;;;;;;5044295;28;20035;-84
2024/01/25 03:24:11;;;;;;;17.45;4.45;;;6.60;99.90;;;;;;5077430;28;20114;-84
2024/01/25 03:26:37;;;;;;;19.95;4.80;;;6.60;99.90;;;;;;5077581;28;20063;-84
2024/01/25 03:29:02;;;;;;;18.13;3.65;;;6.60;99.90;;;;;;5044396;28;20097;-84
2024/01/25 03:31:28;;;;;;;25.27;5.00;;;6.50;99.90;;;;;;5077461;28;20439;-84
2024/01/25 03:33:54;;;;;;;23.50;5.40;;;6.50;99.90;;;;;;5060961;28;20031;-84
2024/01/25 03:36:19;;;;;;;19.38;5.18;;;6.50;99.90;;;;;;5044788;28;20061;-84
2024/01/25 03:38:45;;;;;;;21.08;5.13;;;6.50;99.90;;;;;;5078847;28;20023;-84
2024/01/25 03:41:11;;;;;;;21.15;4.63;;;6.50;99.90;;;;;;5049929;28;20463;-84
2024/01/25 03:43:36;;;;;;;21.17;5.00;;;6.50;99.90;;;;;;5068064;28;20032;-84
2024/01/25 03:46:05;;;;;;;20.75;4.45;;;6.50;99.90;;;;;;5084730;28;20089;-82
2024/01/25 03:48:31;;;;;;;16.10;4.38;;;6.50;99.90;;;;;;5112493;28;20363;-85
2024/01/25 03:50:56;;;;;;;17.90;4.07;;;6.40;99.90;;;;;;5079517;28;20017;-85
2024/01/25 03:53:25;;;;;;;25.45;5.43;;;6.40;99.90;;;;;;5077703;28;20109;-85
2024/01/25 03:55:51;;;;;;;20.27;5.25;;;6.40;99.90;;;;;;5061249;28;20032;-84
2024/01/25 03:58:20;;;;;;;19.20;4.55;;;6.40;99.90;;;;;;5077073;28;20039;-84
2024/01/25 04:00:45;;;;;;;21.90;5.07;;;6.30;99.90;;;;;;5077346;28;20464;-84
2024/01/25 04:03:11;;;;;;;22.00;5.55;;;6.40;99.90;;;;;;5076842;28;20043;-84
2024/01/25 04:05:39;;;;;;;14.75;4.38;;;6.40;99.90;;;;;;5076862;28;20115;-84
2024/01/25 04:08:05;;;;;;;21.83;5.40;;;6.40;99.90;;;;;;5076719;28;20352;-84
2024/01/25 04:10:31;;;;;;;24.30;4.47;;;6.30;99.90;;;;;;5095101;28;20070;-84
2024/01/25 04:12:57;;;;;;;18.17;4.38;;;6.30;99.90;;;;;;5059791;28;20119;-84
2024/01/25 04:15:23;;;;;;;20.25;5.03;;;6.30;99.90;;;;;;5059866;28;20032;-84
2024/01/25 04:17:48;;;;;;;19.38;4.53;;;6.30;99.90;;;;;;5076349;28;20028;-84
2024/01/25 04:20:15;;;;;;;22.95;5.03;;;6.30;99.90;;;;;;5059611;28;20390;-85
2024/01/25 04:22:41;;;;;;;19.85;4.75;;;6.30;99.90;;;;;;5076485;28;20440;-84
2024/01/25 04:25:07;;;;;;;22.10;5.07;;;6.20;99.90;;;;;;5076271;28;20039;-85
2024/01/25 04:27:33;;;;;;;19.67;4.50;;;6.20;99.90;;;;;;5094232;28;20390;-85
2024/01/25 04:29:59;;;;;;;20.77;5.28;;;6.20;99.90;;;;;;5059586;28;20115;-85
2024/01/25 04:32:24;;;;;;;23.17;5.30;;;6.10;99.90;;;;;;5059609;28;20028;-84
2024/01/25 04:34:50;;;;;;;20.60;4.85;;;6.20;99.90;;;;;;5059771;28;20036;-85
2024/01/25 04:37:16;;;;;;;15.85;4.93;;;6.10;99.90;;;;;;5059505;28;20099;-84
2024/01/25 04:39:41;;;;;;;19.92;5.20;;;6.10;99.90;;;;;;5076323;28;20074;-84
2024/01/25 04:42:08;;;;;;;23.55;5.45;;;6.10;99.90;;;;;;5075938;28;20032;-85
2024/01/25 04:44:34;;;;;;;18.20;4.28;;;6.00;99.90;;;;;;5059642;28;20028;-84
2024/01/25 04:47:00;;;;;;;20.10;5.32;;;6.00;99.90;;;;;;5075952;28;20035;-84
2024/01/25 04:49:35;;;;;;;19.25;5.03;;;6.00;99.90;;;;;;5075728;28;20111;-84
2024/01/25 04:52:00;;;;;;;22.23;4.85;;;6.00;99.90;;;;;;5059115;28;20028;-84
2024/01/25 04:54:26;;;;;;;19.48;5.30;;;5.90;99.90;;;;;;5076013;28;20100;-84
2024/01/25 04:56:52;;;;;;;19.20;4.80;;;5.90;99.90;;;;;;5076433;28;20028;-85
2024/01/25 04:59:17;;;;;;;24.17;5.78;;;5.90;99.90;;;;;;5076397;28;20369;-84
2024/01/25 05:01:43;;;;;;;20.73;5.03;;;5.90;99.90;;;;;;5060950;28;20028;-85
2024/01/25 05:04:09;;;;;;;20.95;4.07;;;5.90;99.90;;;;;;5060805;28;20479;-85
2024/01/25 05:06:35;;;;;;;17.52;4.45;;;5.80;99.90;;;;;;5062073;28;20039;-85
2024/01/25 05:09:00;;;;;;;13.50;3.95;;;5.80;99.90;;;;;;5104080;28;20068;-82
2024/01/25 05:11:26;;;;;;;21.08;5.15;;;5.70;99.90;;;;;;5099661;28;20075;-85
2024/01/25 05:13:52;;;;;;;18.77;5.25;;;5.70;99.90;;;;;;5079920;28;20500;-84
2024/01/25 05:16:17;;;;;;;16.77;4.13;;;5.70;99.90;;;;;;5045465;28;20035;-84
2024/01/25 05:18:43;;;;;;;22.35;4.65;;;5.70;99.90;;;;;;5043065;28;20035;-85
2024/01/25 05:21:09;;;;;;;25.92;5.18;;;5.60;99.90;;;;;;5076013;28;20464;-84
2024/01/25 05:23:34;;;;;;;19.17;4.63;;;5.60;99.90;;;;;;5075602;28;20081;-85
2024/01/25 05:26:01;;;;;;;18.58;4.88;;;5.60;99.90;;;;;;5058555;28;20036;-84
2024/01/25 05:28:27;;;;;;;15.95;4.30;;;5.60;99.90;;;;;;5058028;28;20028;-85
2024/01/25 05:30:53;;;;;;;20.45;4.40;;;5.50;99.90;;;;;;5058959;28;20379;-84
2024/01/25 05:33:18;;;;;;;16.30;4.80;;;5.50;99.90;;;;;;5058353;28;20471;-84
2024/01/25 05:35:44;;;;;;;16.92;4.38;;;5.50;99.90;;;;;;5093268;28;20028;-84
2024/01/25 05:38:09;;;;;;;24.25;5.13;;;5.40;99.90;;;;;;5058314;28;20055;-83
2024/01/25 05:40:35;;;;;;;21.63;4.55;;;5.40;99.90;;;;;;5041938;28;20025;-83
2024/01/25 05:43:01;;;;;;;18.73;4.55;;;5.40;99.90;;;;;;5074843;28;20036;-85
2024/01/25 05:45:26;;;;;;;21.35;4.70;;;5.30;99.90;;;;;;5075207;28;20429;-85
2024/01/25 05:47:55;;;;;;;17.05;4.65;;;5.30;99.90;;;;;;5075314;28;20106;-85
2024/01/25 05:50:20;;;;;;;26.95;5.35;;;5.30;99.90;;;;;;5042376;28;20024;-86
2024/01/25 05:52:46;;;;;;;17.63;4.47;;;5.30;99.90;;;;;;5042065;28;20123;-87
2024/01/25 05:55:14;;;;;;;20.00;4.40;;;5.20;99.90;;;;;;5042073;28;20023;-86
2024/01/25 05:57:42;;;;;;;17.83;4.75;;;5.20;99.90;;;;;;5076131;28;20020;-85
2024/01/25 06:00:08;;;;;;;19.90;5.22;;;5.20;99.90;;;;;;5058966;28;20024;-86
2024/01/25 06:02:34;;;;;;;20.70;4.63;;;5.10;99.90;;;;;;5058097;28;20068;-87
2024/01/25 06:05:00;;;;;;;17.08;4.75;;;5.10;99.90;;;;;;5042050;28;20032;-86
2024/01/25 06:07:26;;;;;;;15.77;4.53;;;5.10;99.90;;;;;;5093316;28;20502;-88
2024/01/25 06:09:52;;;;;;;17.45;4.38;;;5.10;99.90;;;;;;5058448;28;20559;-85
2024/01/25 06:12:17;;;;;;;18.73;4.35;;;5.10;99.90;;;;;;5074839;28;20111;-85
2024/01/25 06:14:43;;;;;;;24.58;5.78;;;5.00;99.90;;;;;;5058341;28;20070;-85
2024/01/25 06:17:09;;;;;;;19.75;5.15;;;5.10;99.90;;;;;;5058932;28;20456;-85
2024/01/25 06:19:34;;;;;;;20.27;4.53;;;5.10;99.90;;;;;;5058507;28;20052;-85
2024/01/25 06:22:00;;;;;;;19.25;4.78;;;5.00;99.90;;;;;;5058911;28;20032;-84
2024/01/25 06:24:28;;;;;;;14.70;4.70;;;5.00;99.90;;;;;;5076648;28;20027;-85
2024/01/25 06:26:54;;;;;;;16.73;4.95;;;5.00;99.90;;;;;;5078378;28;20054;-85
2024/01/25 06:29:20;;;;;;;21.92;5.18;;;5.00;99.90;;;;;;5093500;28;20084;-84
2024/01/25 06:31:46;;;;;;;15.82;4.38;;;5.00;99.90;;;;;;5098361;28;20012;-86
2024/01/25 06:34:12;;;;;;;25.45;5.85;;;4.90;99.90;;;;;;5098035;28;20036;-86
2024/01/25 06:36:38;;;;;;;19.55;4.72;;;5.00;99.90;;;;;;5089395;28;20086;-86
2024/01/25 06:39:06;;;;;;;15.43;4.65;;;4.90;99.90;;;;;;5061370;28;20035;-86
2024/01/25 06:41:33;;;;;;;18.77;4.95;;;4.90;99.90;;;;;;5079274;28;20020;-86
2024/01/25 06:43:59;;;;;;;16.92;4.80;;;4.90;99.90;;;;;;5062086;28;20028;-85
2024/01/25 06:46:25;;;;;;;20.13;4.63;;;4.90;99.90;;;;;;5078414;28;20024;-85
2024/01/25 06:48:52;;;;;;;16.80;4.68;;;4.90;99.90;;;;;;5096991;28;20146;-86
2024/01/25 06:51:18;;;;;;;15.93;4.53;;;4.80;99.90;;;;;;5061928;28;20032;-83
2024/01/25 06:53:44;;;;;;;18.40;4.32;;;4.90;99.90;;;;;;5045103;28;20028;-83
2024/01/25 06:56:09;;;;;;;17.50;4.40;;;4.80;99.90;;;;;;5061843;28;20530;-83
2024/01/25 06:58:35;;;;;;;18.13;5.25;;;4.80;99.90;;;;;;5061559;28;20059;-83
2024/01/25 07:01:01;;;;;;;21.35;5.22;;;4.80;99.90;;;;;;5061004;28;20111;-84
2024/01/25 07:03:26;;;;;;;19.08;4.38;;;4.80;99.90;;;;;;5078109;28;20436;-85
2024/01/25 07:05:52;;;;;;;17.02;5.13;;;4.80;99.90;;;;;;5061082;28;20078;-85
2024/01/25 07:08:18;;;;;;;15.05;4.60;;;4.80;99.90;;;;;;5060862;28;20061;-84
2024/01/25 07:10:45;;;;;;;14.20;4.50;;;4.80;99.90;;;;;;5044060;28;20388;-86
2024/01/25 07:13:10;;;;;;;15.80;4.43;;;4.70;99.90;;;;;;5060680;28;20048;-86
2024/01/25 07:15:36;;;;;;;15.88;4.72;;;4.70;99.90;;;;;;5061478;28;20162;-85
2024/01/25 07:18:05;;;;;;;16.13;4.97;;;4.70;99.90;;;;;;5061319;28;20024;-86
2024/01/25 07:20:31;;;;;;;16.35;4.95;;;4.70;99.90;;;;;;5077712;28;20035;-85
2024/01/25 07:22:57;;;;;;;16.50;3.78;;;4.70;99.90;;;;;;5061493;28;20472;-86
2024/01/25 07:25:22;;;;;;;16.50;4.90;;;4.70;99.90;;;;;;5060875;28;20030;-86
2024/01/25 07:27:49;;;;;;;19.73;4.60;;;4.70;99.90;;;;;;5044325;28;20456;-86
2024/01/25 07:30:15;;;;;;;16.33;5.00;;;4.60;99.90;;;;;;5061049;28;20032;-85
2024/01/25 07:32:42;;;;;;;15.70;4.47;;;4.70;99.90;;;;;;5077375;28;20039;-86
2024/01/25 07:35:09;;;;;;;17.27;4.47;;;4.60;99.90;;;;;;5077482;28;20050;-86
2024/01/25 07:37:36;;;;;;;15.43;5.57;;;4.60;99.90;;;;;;5095546;28;20074;-85
2024/01/25 07:40:03;;;;;;;18.52;4.72;;;4.60;99.90;;;;;;5095887;28;20418;-85
2024/01/25 07:42:29;;;;;;;22.00;5.13;;;4.70;99.90;;;;;;5077871;28;20020;-86
2024/01/25 07:44:54;;;;;;;15.45;4.45;;;4.70;99.90;;;;;;5061368;28;20380;-86
2024/01/25 07:47:20;;;;;;;19.35;5.25;;;4.70;99.90;;;;;;5079480;28;20400;-85
2024/01/25 07:49:46;;;;;;;21.55;4.82;;;4.60;99.90;;;;;;5091611;28;20037;-86
2024/01/25 07:52:11;;;;;;;21.77;4.72;;;4.70;99.90;;;;;;5101429;28;20019;-86
2024/01/25 07:54:37;;;;;;;20.05;5.15;;;4.70;99.90;;;;;;5101564;28;20020;-84
2024/01/25 07:57:03;;;;;;;19.80;5.53;;;4.70;99.90;;;;;;5080890;28;20028;-86
2024/01/25 07:59:29;;;;;;;24.85;5.03;;;4.70;99.90;;;;;;5079174;28;20357;-85
2024/01/25 08:01:54;;;;;;;18.20;4.82;;;4.70;99.90;;;;;;5061212;28;20028;-86
2024/01/25 08:04:20;;;;;;;16.88;4.55;;;4.70;99.90;;;;;;5095227;28;20032;-85
2024/01/25 08:06:46;;;;;;;19.50;5.05;;;4.70;99.90;;;;;;5095104;28;20024;-86
2024/01/25 08:09:11;;;;;;;18.27;5.30;;;4.70;99.90;;;;;;5060252;28;20059;-85
2024/01/25 08:11:38;;;;;;;16.33;5.30;;;4.70;99.90;;;;;;5060063;28;20063;-86
2024/01/25 08:14:05;;;;;;;16.17;4.63;;;4.80;99.90;;;;;;5043601;28;20036;-85
2024/01/25 08:16:30;;;;;;;13.07;4.10;;;4.80;99.90;;;;;;5060227;28;20510;-86
2024/01/25 08:18:58;;;;;;;17.80;4.85;;;4.80;99.90;;;;;;5043508;28;20024;-86
2024/01/25 08:21:24;;;;;;;22.00;5.63;;;4.90;99.90;;;;;;5076611;28;20533;-85
2024/01/25 08:23:49;;;;;;;23.08;5.10;;;4.90;99.90;;;;;;5076518;28;20028;-85
2024/01/25 08:26:15;;;;;;;18.70;5.40;;;4.90;99.90;;;;;;5043079;28;20042;-85
2024/01/25 08:28:45;;;;;;;21.20;5.40;;;4.90;99.90;;;;;;5094637;28;20420;-85
2024/01/25 08:31:11;;;;;;;17.90;4.97;;;4.90;99.90;;;;;;5076995;28;20054;-85
2024/01/25 08:33:43;;;;;;;18.60;5.50;;;5.00;99.90;;;;;;5075794;28;20081;-85
2024/01/25 08:36:09;;;;;;;21.02;5.72;;;5.00;99.90;;;;;;5076771;28;20047;-85
2024/01/25 08:38:35;;;;;;;21.15;5.60;;;5.10;99.90;;;;;;5076457;28;20452;-85
2024/01/25 08:41:01;;;;;;;18.08;4.95;;;5.10;99.90;;;;;;5059725;28;20024;-85
2024/01/25 08:43:27;;;;;;;16.90;5.43;;;5.20;99.90;;;;;;5076378;28;20039;-86
2024/01/25 08:45:55;;;;;;;18.00;4.78;;;5.20;99.90;;;;;;5060082;28;20089;-86
2024/01/25 08:48:21;;;;;;;17.42;4.53;;;5.30;99.90;;;;;;5043627;28;20081;-85
2024/01/25 08:50:48;;;;;;;16.13;4.97;;;5.30;99.90;;;;;;5094422;28;20032;-86
2024/01/25 08:53:14;;;;;;;17.92;5.10;;;5.40;99.90;;;;;;5043036;28;20035;-85
2024/01/25 08:55:40;;;;;;;19.50;4.40;;;5.40;99.90;;;;;;5059159;28;20115;-85
2024/01/25 08:58:05;;;;;;;17.35;5.63;;;5.40;99.90;;;;;;5042958;28;20020;-85
2024/01/25 09:00:31;;;;;;;17.60;4.28;;;5.50;99.90;;;;;;5043179;28;20028;-83
2024/01/25 09:02:57;;;;;;;21.02;4.82;;;5.50;99.90;;;;;;5059089;28;20036;-86
2024/01/25 09:05:22;;;;;;;22.48;4.88;;;5.60;99.90;;;;;;5060310;28;20119;-86
2024/01/25 09:07:50;;;;;;;20.77;5.30;;;5.60;99.90;;;;;;5060944;28;20487;-86
2024/01/25 09:10:16;;;;;;;21.70;5.90;;;5.70;99.90;;;;;;5063241;28;20028;-85
2024/01/25 09:12:41;;;;;;;21.10;5.80;;;5.70;99.90;;;;;;5114626;28;20125;-84
2024/01/25 09:15:08;;;;;;;22.15;5.80;;;5.80;99.90;;;;;;5067723;28;20032;-85
2024/01/25 09:17:33;;;;;;;20.10;5.38;;;5.80;99.90;;;;;;5099150;28;20028;-83
2024/01/25 09:19:59;;;;;;;19.55;5.00;;;5.90;99.90;;;;;;5073526;28;20424;-86
2024/01/25 09:22:25;;;;;;;20.30;4.72;;;6.00;99.90;;;;;;5043871;28;20036;-86
2024/01/25 09:24:51;;;;;;;18.02;5.45;;;6.00;99.90;;;;;;5059182;28;20053;-86
2024/01/25 09:27:16;;;;;;;19.67;4.90;;;6.10;99.90;;;;;;5059381;28;20107;-86
2024/01/25 09:29:42;;;;;;;21.42;5.20;;;6.10;99.90;;;;;;5075519;28;20031;-84
2024/01/25 09:32:09;;;;;;;20.98;5.45;;;6.20;99.90;;;;;;5058812;28;20036;-86
2024/01/25 09:34:36;;;;;;;18.02;4.47;;;6.20;99.90;;;;;;5093996;28;20027;-85
2024/01/25 09:37:04;;;;;;;19.00;5.13;;;6.30;99.90;;;;;;5075878;28;20023;-86
2024/01/25 09:39:32;;;;;;;21.92;6.05;;;6.30;99.90;;;;;;5075715;28;20442;-87
2024/01/25 09:41:57;;;;;;;19.08;5.07;;;6.40;99.90;;;;;;5075328;28;20018;-86
2024/01/25 09:44:23;;;;;;;19.30;5.57;;;6.50;99.90;;;;;;5058513;28;20032;-86
2024/01/25 09:46:50;;;;;;;18.13;5.40;;;6.50;99.90;;;;;;5075602;28;20024;-88
2024/01/25 09:49:16;;;;;;;28.42;6.25;;;6.60;99.90;;;;;;5076763;28;20047;-84
2024/01/25 09:51:43;;;;;;;20.40;5.38;;;6.60;99.90;;;;;;5058666;28;20460;-84
2024/01/25 09:54:09;;;;;;;17.73;5.80;;;6.70;99.90;;;;;;5075544;28;20039;-85
2024/01/25 09:56:35;;;;;;;20.48;6.97;;;6.70;99.90;;;;;;5058747;28;20024;-84
2024/01/25 09:59:04;;;;;;;23.17;7.00;;;6.70;99.90;;;;;;5075254;28;20032;-85
2024/01/25 10:01:30;;;;;;;22.23;6.50;;;6.80;99.90;;;;;;5058910;28;20035;-84
2024/01/25 10:03:56;;;;;;;20.15;5.45;;;6.80;99.90;;;;;;5058257;28;20032;-84
2024/01/25 10:06:22;;;;;;;16.65;5.78;;;6.90;99.90;;;;;;5042062;28;20036;-82
2024/01/25 10:08:48;;;;;;;16.65;5.93;;;7.00;99.90;;;;;;5075012;28;20478;-84
2024/01/25 10:11:14;;;;;;;19.77;6.03;;;7.00;99.90;;;;;;5075002;28;20020;-83
2024/01/25 10:13:44;;;;;;;25.08;6.85;;;7.10;99.90;;;;;;5074803;28;20076;-83
2024/01/25 10:16:12;;;;;;;25.77;5.88;;;7.10;99.90;;;;;;5062645;28;20028;-85
2024/01/25 10:18:39;;;;;;;24.38;6.60;;;7.20;99.90;;;;;;5079393;28;20101;-85
2024/01/25 10:21:06;;;;;;;26.50;6.07;;;7.30;99.90;;;;;;5061445;28;20032;-82
2024/01/25 10:23:32;;;;;;;25.88;6.47;;;7.40;99.90;;;;;;5078800;28;20032;-83
2024/01/25 10:25:58;;;;;;;26.17;6.53;;;7.40;99.90;;;;;;5078322;28;20054;-83
2024/01/25 10:28:25;;;;;;;27.45;6.72;;;7.50;99.90;;;;;;5062490;28;20032;-83
2024/01/25 10:30:51;;;;;;;24.73;6.32;;;7.50;99.90;;;;;;5079163;28;20032;-83
2024/01/25 10:33:20;;;;;;;19.92;7.05;;;7.60;99.90;;;;;;5080280;28;20062;-83
2024/01/25 10:35:49;;;;;;;23.25;5.97;;;7.60;99.90;;;;;;5069585;28;20051;-83
2024/01/25 10:38:17;;;;;;;25.05;7.10;;;7.70;99.90;;;;;;5121082;28;20024;-83
2024/01/25 10:40:44;;;;;;;23.02;5.78;;;7.70;99.90;;;;;;5086519;28;20043;-83
2024/01/25 10:43:09;;;;;;;26.75;6.90;;;7.80;99.90;;;;;;5102504;28;20058;-83
2024/01/25 10:45:35;;;;;;;24.02;7.15;;;7.80;99.90;;;;;;5057750;28;20543;-83
2024/01/25 10:48:01;;;;;;;21.52;6.85;;;7.90;99.90;;;;;;5062210;28;20031;-83
2024/01/25 10:50:27;;;;;;;22.95;6.90;;;7.90;99.90;;;;;;5062092;28;20025;-84
2024/01/25 10:52:53;;;;;;;19.83;6.88;;;8.00;99.90;;;;;;5045047;28;20479;-84
2024/01/25 10:55:20;;;;;;;21.80;6.25;;;8.00;99.90;;;;;;5078150;28;20012;-83
2024/01/25 10:57:47;;;;;;;21.70;7.88;;;8.10;99.90;;;;;;5078130;28;20024;-82
2024/01/25 11:00:15;;;;;;;23.17;6.63;;;8.10;99.90;;;;;;5096731;28;20024;-84
2024/01/25 11:02:41;;;;;;;22.00;6.45;;;8.20;99.90;;;;;;5078293;28;20035;-83
2024/01/25 11:05:12;;;;;;;23.00;7.07;;;8.20;99.90;;;;;;5078024;28;20068;-84
2024/01/25 11:07:45;;;;;;;23.15;7.68;;;8.30;99.90;;;;;;5077833;28;20028;-84
2024/01/25 11:10:22;;;;;;;25.60;7.13;;;8.30;99.90;;;;;;5061811;28;20032;-84
2024/01/25 11:13:01;;;;;;;22.80;6.45;;;8.30;99.90;;;;;;5077612;28;20047;-82
2024/01/25 11:15:34;;;;;;;20.40;6.65;;;8.40;99.90;;;;;;5077727;28;20051;-84
2024/01/25 11:18:07;;;;;;;27.58;7.85;;;8.40;99.90;;;;;;5095769;28;20107;-84
2024/01/25 11:20:34;;;;;;;20.40;6.43;;;8.40;99.90;;;;;;5061795;28;20067;-84
2024/01/25 11:23:04;;;;;;;24.63;6.82;;;8.50;99.90;;;;;;5060927;28;20024;-84
2024/01/25 11:25:35;;;;;;;22.65;8.05;;;8.50;99.90;;;;;;5077196;28;20043;-84
2024/01/25 11:28:03;;;;;;;23.90;7.32;;;8.50;99.90;;;;;;5077011;28;20119;-84
2024/01/25 11:30:31;;;;;;;22.15;6.70;;;8.60;99.90;;;;;;5095439;28;20070;-84
2024/01/25 11:32:57;;;;;;;17.17;7.03;;;8.60;99.90;;;;;;5077356;28;20491;-84
2024/01/25 11:35:23;;;;;;;24.58;6.93;;;8.60;99.90;;;;;;5077647;28;20036;-83
2024/01/25 11:37:51;;;;;;;24.70;7.05;;;8.70;99.90;;;;;;5095744;28;20035;-84
2024/01/25 11:40:18;;;;;;;18.58;6.75;;;8.70;99.90;;;;;;5060984;28;20016;-83
2024/01/25 11:42:47;;;;;;;23.10;7.78;;;8.70;99.90;;;;;;5077295;28;20028;-83
2024/01/25 11:45:14;;;;;;;22.80;7.28;;;8.80;99.90;;;;;;5076949;28;20040;-84
2024/01/25 11:47:41;;;;;;;26.88;7.97;;;8.80;99.90;;;;;;5077279;28;20024;-83
2024/01/25 11:50:09;;;;;;;20.60;7.60;;;8.80;99.90;;;;;;5095436;28;20024;-84
2024/01/25 11:52:35;;;;;;;24.70;7.85;;;8.80;99.90;;;;;;5094872;28;20020;-84
2024/01/25 11:55:09;;;;;;;25.05;7.60;;;8.90;99.90;;;;;;5060506;28;20382;-84
2024/01/25 11:57:36;;;;;;;23.67;7.32;;;8.90;99.90;;;;;;5077246;28;20069;-83
2024/01/25 12:00:04;;;;;;;27.30;7.25;;;9.00;99.90;;;;;;5076877;28;20043;-83
2024/01/25 12:02:31;;;;;;;25.73;7.10;;;9.00;99.90;;;;;;5060948;28;20122;-84
2024/01/25 12:04:57;;;;;;;22.20;7.90;;;9.10;99.90;;;;;;5115254;28;20011;-83
2024/01/25 12:07:23;;;;;;;21.35;7.60;;;9.10;99.90;;;;;;5119466;28;20028;-83
2024/01/25 12:10:18;;;;;;;25.00;7.63;;;9.10;99.90;;;;;;5084825;28;20051;-83
2024/01/25 12:12:43;;;;;;;27.45;8.00;;;9.10;99.90;;;;;;5098411;28;20052;-83
2024/01/25 12:15:09;;;;;;;29.42;8.68;;;9.10;99.90;;;;;;5078879;28;20081;-83
2024/01/25 12:17:39;;;;;;;22.15;7.47;;;9.20;99.90;;;;;;5043544;28;20028;-83
2024/01/25 12:20:10;;;;;;;23.52;7.43;;;9.20;99.90;;;;;;5076503;28;20024;-84
2024/01/25 12:22:37;;;;;;;23.45;7.38;;;9.20;99.90;;;;;;5060976;28;20391;-83
2024/01/25 12:25:09;;;;;;;25.40;7.60;;;9.20;99.90;;;;;;5076588;28;20016;-83
2024/01/25 12:27:37;;;;;;;29.45;8.95;;;9.20;99.90;;;;;;5094440;28;20016;-83
2024/01/25 12:30:03;;;;;;;23.58;8.00;;;9.20;99.90;;;;;;5060039;28;20476;-84
2024/01/25 12:32:29;;;;;;;21.98;7.43;;;9.20;99.90;;;;;;5075882;28;20047;-84
2024/01/25 12:35:03;;;;;;;21.48;7.05;;;9.20;99.90;;;;;;5094578;28;20024;-83
2024/01/25 12:37:29;;;;;;;27.17;7.82;;;9.20;99.90;;;;;;5076270;28;20123;-84
2024/01/25 12:39:55;;;;;;;22.80;8.30;;;9.20;99.90;;;;;;5059390;28;20024;-83
2024/01/25 12:42:21;;;;;;;22.02;7.90;;;9.20;99.90;;;;;;5075813;28;20024;-84
2024/01/25 12:44:48;;;;;;;26.98;8.55;;;9.20;99.90;;;;;;5094197;28;20038;-83
2024/01/25 12:47:14;;;;;;;24.98;8.80;;;9.20;99.90;;;;;;5042779;28;20024;-83